PWSweather.com
Personal Weather Stations
Station Observations
IHTIMAN1
Neighbourhood 1, IhtimanBG 2050

Neighbourhood 1IhtimanBG 2050

Lat: 42.436852, Lon: 23.817921

Elevation: 2066

Station Type: Oregon Scientific WMR968

http://ihtiman-meteo.com

High Low Average
Temperature 72.3°F22.4°C 51.3°F10.7°C 60.6°F15.9°C
Dew Point 61.4°F16.3°C 50.5°F10.3°C 55.4°F13.0°C
Winds 5.8 mph 9.3 kmh Calm Calm 1.0 mph SE1.6 kmh SE
Wind Gusts 11.5 mph18.5 kmh -- 2.0 mph3.2 kmh
Humidity 98% 53% 85%
Pressure 29.94 in1013.9 mb 29.88 in1011.9 mb -
Precipitation 0.09 in2.3 mm - -
Hour Temp Dew Point Humidity Winds Wind Gusts Pressure Precip Precip Rate Daily Precip Total
12:00 AM 53.1°F11.7°C 52.5°F11.4°C 98% Calm Calm -- 29.91 in1012.9 mb - 0.00 in0.0 mm 0.00 in0.0 mm
12:10 AM 53.1°F11.7°C 52.5°F11.4°C 98% Calm Calm -- 29.91 in1012.9 mb - 0.00 in0.0 mm 0.00 in0.0 mm
12:20 AM 53.2°F11.8°C 52.7°F11.5°C 98% Calm Calm -- 29.91 in1012.9 mb - 0.00 in0.0 mm 0.00 in0.0 mm
12:30 AM 53.2°F11.8°C 52.7°F11.5°C 98% Calm Calm -- 29.91 in1012.9 mb - 0.00 in0.0 mm 0.00 in0.0 mm
12:40 AM 53.4°F11.9°C 52.9°F11.6°C 98% Calm Calm -- 29.91 in1012.9 mb - 0.00 in0.0 mm 0.00 in0.0 mm
01:00 AM 53.4°F11.9°C 52.9°F11.6°C 98% Calm Calm -- 29.91 in1012.9 mb - 0.00 in0.0 mm 0.00 in0.0 mm
01:10 AM 53.1°F11.7°C 52.5°F11.4°C 98% Calm Calm -- 29.91 in1012.9 mb - 0.00 in0.0 mm 0.00 in0.0 mm
01:20 AM 52.7°F11.5°C 52.2°F11.2°C 98% Calm Calm -- 29.88 in1011.9 mb - 0.00 in0.0 mm 0.00 in0.0 mm
01:30 AM 52.5°F11.4°C 52.0°F11.1°C 98% Calm Calm -- 29.88 in1011.9 mb - 0.00 in0.0 mm 0.00 in0.0 mm
01:40 AM 52.5°F11.4°C 52.0°F11.1°C 98% Calm Calm -- 29.88 in1011.9 mb - 0.00 in0.0 mm 0.00 in0.0 mm
01:50 AM 52.3°F11.3°C 51.8°F11.0°C 98% Calm Calm -- 29.88 in1011.9 mb - 0.00 in0.0 mm 0.00 in0.0 mm
02:00 AM 52.3°F11.3°C 51.8°F11.0°C 98% Calm Calm -- 29.88 in1011.9 mb - 0.00 in0.0 mm 0.00 in0.0 mm
02:10 AM 52.3°F11.3°C 51.8°F11.0°C 98% Calm Calm -- 29.88 in1011.9 mb - 0.00 in0.0 mm 0.00 in0.0 mm
02:20 AM 52.3°F11.3°C 51.7°F10.9°C 98% Calm Calm -- 29.88 in1011.9 mb - 0.00 in0.0 mm 0.00 in0.0 mm
02:30 AM 52.2°F11.2°C 51.6°F10.9°C 98% Calm Calm -- 29.88 in1011.9 mb - 0.00 in0.0 mm 0.00 in0.0 mm
02:40 AM 52.0°F11.1°C 51.4°F10.8°C 98% Calm Calm -- 29.88 in1011.9 mb - 0.00 in0.0 mm 0.00 in0.0 mm
02:50 AM 52.0°F11.1°C 51.4°F10.8°C 98% Calm Calm -- 29.88 in1011.9 mb - 0.00 in0.0 mm 0.00 in0.0 mm
03:00 AM 52.2°F11.2°C 51.6°F10.9°C 98% Calm Calm -- 29.88 in1011.9 mb - 0.00 in0.0 mm 0.00 in0.0 mm
03:10 AM 52.0°F11.1°C 51.4°F10.8°C 98% Calm Calm -- 29.88 in1011.9 mb - 0.00 in0.0 mm 0.00 in0.0 mm
03:20 AM 51.8°F11.0°C 51.3°F10.7°C 98% Calm Calm -- 29.88 in1011.9 mb - 0.00 in0.0 mm 0.00 in0.0 mm
03:30 AM 51.8°F11.0°C 51.3°F10.7°C 98% Calm Calm -- 29.88 in1011.9 mb - 0.00 in0.0 mm 0.00 in0.0 mm
03:40 AM 51.4°F10.8°C 50.9°F10.5°C 98% Calm Calm -- 29.88 in1011.9 mb - 0.00 in0.0 mm 0.00 in0.0 mm
03:50 AM 51.3°F10.7°C 50.7°F10.4°C 98% Calm Calm -- 29.88 in1011.9 mb - 0.00 in0.0 mm 0.00 in0.0 mm
04:00 AM 51.3°F10.7°C 50.7°F10.4°C 98% Calm Calm -- 29.88 in1011.9 mb - 0.00 in0.0 mm 0.00 in0.0 mm
04:10 AM 51.3°F10.7°C 50.7°F10.4°C 98% Calm Calm -- 29.88 in1011.9 mb - 0.00 in0.0 mm 0.00 in0.0 mm
04:20 AM 51.4°F10.8°C 50.9°F10.5°C 98% Calm Calm -- 29.88 in1011.9 mb - 0.00 in0.0 mm 0.00 in0.0 mm
04:30 AM 51.6°F10.9°C 51.1°F10.6°C 98% Calm Calm -- 29.88 in1011.9 mb - 0.00 in0.0 mm 0.00 in0.0 mm
04:40 AM 51.6°F10.9°C 51.1°F10.6°C 98% Calm Calm -- 29.88 in1011.9 mb - 0.00 in0.0 mm 0.00 in0.0 mm
04:50 AM 51.8°F11.0°C 51.3°F10.7°C 98% Calm Calm -- 29.88 in1011.9 mb - 0.00 in0.0 mm 0.00 in0.0 mm
05:00 AM 52.0°F11.1°C 51.4°F10.8°C 98% Calm Calm -- 29.88 in1011.9 mb - 0.00 in0.0 mm 0.00 in0.0 mm
05:10 AM 52.2°F11.2°C 51.6°F10.9°C 98% Calm Calm -- 29.88 in1011.9 mb - 0.00 in0.0 mm 0.00 in0.0 mm
05:20 AM 52.2°F11.2°C 51.6°F10.9°C 98% Calm Calm -- 29.88 in1011.9 mb - 0.00 in0.0 mm 0.00 in0.0 mm
05:30 AM 52.2°F11.2°C 51.6°F10.9°C 98% Calm Calm -- 29.88 in1011.9 mb - 0.00 in0.0 mm 0.00 in0.0 mm
05:40 AM 52.3°F11.3°C 51.8°F11.0°C 98% Calm Calm -- 29.88 in1011.9 mb - 0.00 in0.0 mm 0.00 in0.0 mm
05:50 AM 52.3°F11.3°C 51.8°F11.0°C 98% Calm Calm -- 29.88 in1011.9 mb - 0.00 in0.0 mm 0.00 in0.0 mm
06:00 AM 52.7°F11.5°C 52.2°F11.2°C 98% Calm Calm -- 29.88 in1011.9 mb - 0.00 in0.0 mm 0.00 in0.0 mm
06:10 AM 53.2°F11.8°C 52.6°F11.4°C 98% Calm Calm -- 29.88 in1011.9 mb - 0.00 in0.0 mm 0.00 in0.0 mm
06:20 AM 53.2°F11.8°C 52.7°F11.5°C 98% Calm Calm -- 29.88 in1011.9 mb - 0.00 in0.0 mm 0.00 in0.0 mm
06:30 AM 53.1°F11.7°C 52.6°F11.4°C 98% Calm Calm -- 29.88 in1011.9 mb - 0.00 in0.0 mm 0.00 in0.0 mm
06:40 AM 54.1°F12.3°C 53.6°F12.0°C 98% Calm Calm -- 29.88 in1011.9 mb - 0.00 in0.0 mm 0.00 in0.0 mm
06:50 AM 54.7°F12.6°C 54.1°F12.3°C 98% Calm Calm -- 29.88 in1011.9 mb - 0.00 in0.0 mm 0.00 in0.0 mm
07:00 AM 54.6°F12.6°C 54.0°F12.2°C 98% Calm Calm -- 29.88 in1011.9 mb - 0.00 in0.0 mm 0.00 in0.0 mm
07:10 AM 54.9°F12.7°C 54.3°F12.4°C 98% Calm Calm -- 29.88 in1011.9 mb - 0.00 in0.0 mm 0.00 in0.0 mm
07:20 AM 55.4°F13.0°C 54.8°F12.7°C 98% 2.3 mph NNW3.7 kmh NNW 3.5 mph5.6 kmh 29.88 in1011.9 mb - 0.00 in0.0 mm 0.00 in0.0 mm
07:30 AM 54.9°F12.7°C 54.4°F12.4°C 98% Calm Calm -- 29.91 in1012.9 mb - 0.00 in0.0 mm 0.00 in0.0 mm
07:40 AM 56.5°F13.6°C 56.0°F13.3°C 98% Calm Calm -- 29.91 in1012.9 mb - 0.00 in0.0 mm 0.00 in0.0 mm
07:50 AM 57.0°F13.9°C 56.4°F13.6°C 98% Calm Calm -- 29.91 in1012.9 mb - 0.00 in0.0 mm 0.00 in0.0 mm
08:00 AM 58.1°F14.5°C 57.5°F14.2°C 98% Calm Calm -- 29.91 in1012.9 mb - 0.00 in0.0 mm 0.00 in0.0 mm
08:10 AM 58.5°F14.7°C 57.4°F14.1°C 96% 2.3 mph SSW3.7 kmh SSW 3.5 mph5.6 kmh 29.91 in1012.9 mb - 0.00 in0.0 mm 0.00 in0.0 mm
08:20 AM 59.4°F15.2°C 57.4°F14.1°C 93% Calm Calm 3.5 mph5.6 kmh 29.91 in1012.9 mb - 0.00 in0.0 mm 0.00 in0.0 mm
08:30 AM 60.6°F15.9°C 58.0°F14.4°C 91% 2.3 mph N3.7 kmh N 3.5 mph5.6 kmh 29.91 in1012.9 mb - 0.00 in0.0 mm 0.00 in0.0 mm
08:40 AM 61.0°F16.1°C 57.1°F13.9°C 87% Calm Calm -- 29.91 in1012.9 mb - 0.00 in0.0 mm 0.00 in0.0 mm
08:50 AM 63.5°F17.5°C 58.6°F14.8°C 84% 2.3 mph W3.7 kmh W 3.5 mph5.6 kmh 29.91 in1012.9 mb - 0.00 in0.0 mm 0.00 in0.0 mm
09:00 AM 65.0°F18.3°C 58.6°F14.8°C 80% 2.3 mph NNW3.7 kmh NNW 3.5 mph5.6 kmh 29.91 in1012.9 mb - 0.00 in0.0 mm 0.00 in0.0 mm
09:10 AM 65.3°F18.5°C 56.8°F13.8°C 74% Calm Calm 3.5 mph5.6 kmh 29.91 in1012.9 mb - 0.00 in0.0 mm 0.00 in0.0 mm
09:20 AM 65.6°F18.7°C 56.7°F13.7°C 73% 4.6 mph S7.4 kmh S 5.8 mph9.3 kmh 29.91 in1012.9 mb - 0.00 in0.0 mm 0.00 in0.0 mm
09:30 AM 66.7°F19.3°C 57.0°F13.9°C 71% 3.5 mph SE5.6 kmh SE 3.5 mph5.6 kmh 29.91 in1012.9 mb - 0.00 in0.0 mm 0.00 in0.0 mm
09:40 AM 66.2°F19.0°C 56.9°F13.8°C 72% 4.6 mph S7.4 kmh S 5.8 mph9.3 kmh 29.91 in1012.9 mb - 0.00 in0.0 mm 0.00 in0.0 mm
09:50 AM 66.4°F19.1°C 56.7°F13.7°C 71% 2.3 mph ESE3.7 kmh ESE 4.6 mph7.4 kmh 29.91 in1012.9 mb - 0.00 in0.0 mm 0.00 in0.0 mm
10:00 AM 66.8°F19.3°C 56.3°F13.5°C 69% 1.2 mph S1.9 kmh S 3.5 mph5.6 kmh 29.91 in1012.9 mb - 0.00 in0.0 mm 0.00 in0.0 mm
10:10 AM 66.5°F19.2°C 55.6°F13.1°C 68% Calm Calm -- 29.91 in1012.9 mb - 0.00 in0.0 mm 0.00 in0.0 mm
10:20 AM 66.8°F19.3°C 55.5°F13.1°C 67% Calm Calm 4.6 mph7.4 kmh 29.91 in1012.9 mb - 0.00 in0.0 mm 0.00 in0.0 mm
10:30 AM 68.5°F20.3°C 56.7°F13.7°C 66% 3.5 mph S5.6 kmh S 8.1 mph13.0 kmh 29.91 in1012.9 mb - 0.00 in0.0 mm 0.00 in0.0 mm
10:40 AM 68.0°F20.0°C 55.4°F13.0°C 64% Calm Calm -- 29.91 in1012.9 mb - 0.00 in0.0 mm 0.00 in0.0 mm
10:50 AM 68.7°F20.4°C 55.6°F13.1°C 63% 4.6 mph SSE7.4 kmh SSE 5.8 mph9.3 kmh 29.91 in1012.9 mb - 0.00 in0.0 mm 0.00 in0.0 mm
11:00 AM 70.9°F21.6°C 55.8°F13.2°C 59% 4.6 mph S7.4 kmh S 9.2 mph14.8 kmh 29.91 in1012.9 mb - 0.00 in0.0 mm 0.00 in0.0 mm
11:10 AM 70.5°F21.4°C 56.0°F13.3°C 60% 3.5 mph SE5.6 kmh SE 5.8 mph9.3 kmh 29.91 in1012.9 mb - 0.00 in0.0 mm 0.00 in0.0 mm
11:20 AM 69.9°F21.1°C 55.8°F13.2°C 61% 1.2 mph WSW1.9 kmh WSW -- 29.91 in1012.9 mb - 0.00 in0.0 mm 0.00 in0.0 mm
11:30 AM 70.3°F21.3°C 56.2°F13.4°C 61% 4.6 mph SE7.4 kmh SE 5.8 mph9.3 kmh 29.91 in1012.9 mb - 0.00 in0.0 mm 0.00 in0.0 mm
11:40 AM 70.8°F21.6°C 56.2°F13.4°C 60% 5.8 mph SE9.3 kmh SE 8.1 mph13.0 kmh 29.91 in1012.9 mb - 0.00 in0.0 mm 0.00 in0.0 mm
11:50 AM 71.8°F22.1°C 56.7°F13.7°C 59% 3.5 mph SE5.6 kmh SE 5.8 mph9.3 kmh 29.91 in1012.9 mb - 0.00 in0.0 mm 0.00 in0.0 mm
12:00 PM 72.3°F22.4°C 56.7°F13.7°C 58% 1.2 mph SE1.9 kmh SE 3.5 mph5.6 kmh 29.91 in1012.9 mb - 0.00 in0.0 mm 0.00 in0.0 mm
12:10 PM 71.2°F21.8°C 55.7°F13.2°C 58% 1.2 mph E1.9 kmh E 5.8 mph9.3 kmh 29.91 in1012.9 mb - 0.00 in0.0 mm 0.00 in0.0 mm
12:20 PM 70.8°F21.6°C 55.7°F13.2°C 59% 5.8 mph SSE9.3 kmh SSE 8.1 mph13.0 kmh 29.91 in1012.9 mb - 0.00 in0.0 mm 0.00 in0.0 mm
12:30 PM 69.9°F21.1°C 54.4°F12.4°C 58% 2.3 mph SE3.7 kmh SE 3.5 mph5.6 kmh 29.91 in1012.9 mb - 0.00 in0.0 mm 0.00 in0.0 mm
12:40 PM 68.3°F20.2°C 53.9°F12.2°C 60% 3.5 mph ESE5.6 kmh ESE 3.5 mph5.6 kmh 29.91 in1012.9 mb - 0.00 in0.0 mm 0.00 in0.0 mm
12:50 PM 66.0°F18.9°C 56.7°F13.7°C 72% 2.3 mph SE3.7 kmh SE 3.5 mph5.6 kmh 29.91 in1012.9 mb - 0.00 in0.0 mm 0.00 in0.0 mm
01:00 PM 65.3°F18.5°C 58.9°F14.9°C 80% Calm Calm 2.3 mph3.7 kmh 29.91 in1012.9 mb - 0.00 in0.0 mm 0.00 in0.0 mm
01:10 PM 65.2°F18.4°C 60.2°F15.7°C 84% 4.6 mph SE7.4 kmh SE 5.8 mph9.3 kmh 29.91 in1012.9 mb - 0.00 in0.0 mm 0.00 in0.0 mm
01:20 PM 64.8°F18.2°C 60.2°F15.7°C 85% 3.5 mph ESE5.6 kmh ESE 5.8 mph9.3 kmh 29.91 in1012.9 mb - 0.09 in2.3 mm 0.09 in2.3 mm
01:30 PM 67.1°F19.5°C 61.4°F16.3°C 82% 3.5 mph ESE5.6 kmh ESE 5.8 mph9.3 kmh 29.91 in1012.9 mb - 0.09 in2.3 mm 0.09 in2.3 mm
01:40 PM 67.8°F19.9°C 58.4°F14.7°C 72% 1.2 mph SE1.9 kmh SE 3.5 mph5.6 kmh 29.91 in1012.9 mb - 0.09 in2.3 mm 0.09 in2.3 mm
01:50 PM 69.3°F20.7°C 59.9°F15.5°C 72% 2.3 mph ESE3.7 kmh ESE 3.5 mph5.6 kmh 29.91 in1012.9 mb - 0.09 in2.3 mm 0.09 in2.3 mm
02:00 PM 70.8°F21.6°C 55.3°F12.9°C 58% 2.3 mph NE3.7 kmh NE 3.5 mph5.6 kmh 29.91 in1012.9 mb - 0.09 in2.3 mm 0.09 in2.3 mm
02:10 PM 71.8°F22.1°C 55.2°F12.9°C 56% 1.2 mph S1.9 kmh S 5.8 mph9.3 kmh 29.91 in1012.9 mb - 0.09 in2.3 mm 0.09 in2.3 mm
02:20 PM 70.5°F21.4°C 52.6°F11.4°C 53% Calm Calm -- 29.88 in1011.9 mb - 0.00 in0.0 mm 0.09 in2.3 mm
02:30 PM 69.1°F20.6°C 53.2°F11.8°C 57% 4.6 mph SW7.4 kmh SW 8.1 mph13.0 kmh 29.91 in1012.9 mb - 0.00 in0.0 mm 0.09 in2.3 mm
02:40 PM 66.8°F19.3°C 54.2°F12.3°C 64% 5.8 mph WNW9.3 kmh WNW 11.5 mph18.5 kmh 29.91 in1012.9 mb - 0.00 in0.0 mm 0.09 in2.3 mm
02:50 PM 63.8°F17.7°C 50.5°F10.3°C 62% 4.6 mph WNW7.4 kmh WNW 8.1 mph13.0 kmh 29.91 in1012.9 mb - 0.00 in0.0 mm 0.09 in2.3 mm
03:00 PM 62.6°F17.0°C 51.5°F10.8°C 67% 3.5 mph SW5.6 kmh SW 3.5 mph5.6 kmh 29.91 in1012.9 mb - 0.00 in0.0 mm 0.09 in2.3 mm
03:10 PM 63.0°F17.2°C 53.4°F11.9°C 71% 3.5 mph N5.6 kmh N 3.5 mph5.6 kmh 29.91 in1012.9 mb - 0.00 in0.0 mm 0.09 in2.3 mm
03:20 PM 63.5°F17.5°C 55.1°F12.8°C 74% 3.5 mph N5.6 kmh N 4.6 mph7.4 kmh 29.91 in1012.9 mb - 0.00 in0.0 mm 0.09 in2.3 mm
03:30 PM 68.6°F20.3°C 58.5°F14.7°C 70% 4.6 mph N7.4 kmh N 5.8 mph9.3 kmh 29.91 in1012.9 mb - 0.00 in0.0 mm 0.09 in2.3 mm
03:40 PM 72.0°F22.2°C 56.4°F13.6°C 58% 2.3 mph NNW3.7 kmh NNW 5.8 mph9.3 kmh 29.91 in1012.9 mb - 0.00 in0.0 mm 0.09 in2.3 mm
05:30 PM 69.3°F20.7°C 58.3°F14.6°C 68% 5.8 mph S9.3 kmh S 5.8 mph9.3 kmh 29.88 in1011.9 mb - 0.00 in0.0 mm 0.09 in2.3 mm
05:40 PM 69.3°F20.7°C 58.3°F14.6°C 68% 4.6 mph S7.4 kmh S 8.1 mph13.0 kmh 29.88 in1011.9 mb - 0.00 in0.0 mm 0.09 in2.3 mm
05:50 PM 67.5°F19.7°C 57.0°F13.9°C 69% 4.6 mph SE7.4 kmh SE 5.8 mph9.3 kmh 29.88 in1011.9 mb - 0.00 in0.0 mm 0.09 in2.3 mm
06:00 PM 67.1°F19.5°C 57.0°F13.9°C 70% 5.8 mph SSE9.3 kmh SSE 5.8 mph9.3 kmh 29.91 in1012.9 mb - 0.00 in0.0 mm 0.09 in2.3 mm
06:10 PM 67.1°F19.5°C 57.0°F13.9°C 70% 5.8 mph SSE9.3 kmh SSE 8.1 mph13.0 kmh 29.91 in1012.9 mb - 0.00 in0.0 mm 0.09 in2.3 mm
06:20 PM 67.1°F19.5°C 57.0°F13.9°C 70% 3.5 mph SE5.6 kmh SE 3.5 mph5.6 kmh 29.91 in1012.9 mb - 0.00 in0.0 mm 0.09 in2.3 mm
06:30 PM 65.7°F18.7°C 58.6°F14.8°C 78% 4.6 mph ESE7.4 kmh ESE 4.6 mph7.4 kmh 29.91 in1012.9 mb - 0.00 in0.0 mm 0.09 in2.3 mm
06:40 PM 65.7°F18.7°C 58.6°F14.8°C 78% 2.3 mph SE3.7 kmh SE 5.8 mph9.3 kmh 29.91 in1012.9 mb - 0.00 in0.0 mm 0.09 in2.3 mm
06:50 PM 64.9°F18.3°C 59.0°F15.0°C 81% 2.3 mph SSE3.7 kmh SSE 3.5 mph5.6 kmh 29.91 in1012.9 mb - 0.00 in0.0 mm 0.09 in2.3 mm
07:00 PM 64.4°F18.0°C 58.4°F14.7°C 81% 1.2 mph E1.9 kmh E 3.5 mph5.6 kmh 29.91 in1012.9 mb - 0.00 in0.0 mm 0.09 in2.3 mm
07:10 PM 64.2°F17.9°C 58.6°F14.8°C 82% Calm Calm -- 29.91 in1012.9 mb - 0.00 in0.0 mm 0.09 in2.3 mm
07:20 PM 64.2°F17.9°C 58.6°F14.8°C 82% Calm Calm 3.5 mph5.6 kmh 29.91 in1012.9 mb - 0.00 in0.0 mm 0.09 in2.3 mm
07:30 PM 64.2°F17.9°C 58.6°F14.8°C 82% 2.3 mph ENE3.7 kmh ENE 3.5 mph5.6 kmh 29.91 in1012.9 mb - 0.00 in0.0 mm 0.09 in2.3 mm
07:40 PM 64.2°F17.9°C 58.6°F14.8°C 82% Calm Calm 3.5 mph5.6 kmh 29.91 in1012.9 mb - 0.00 in0.0 mm 0.09 in2.3 mm
07:50 PM 64.2°F17.9°C 58.6°F14.8°C 82% 1.2 mph NE1.9 kmh NE 3.5 mph5.6 kmh 29.91 in1012.9 mb - 0.00 in0.0 mm 0.09 in2.3 mm
08:00 PM 64.2°F17.9°C 58.6°F14.8°C 82% Calm Calm 3.5 mph5.6 kmh 29.91 in1012.9 mb - 0.00 in0.0 mm 0.09 in2.3 mm
08:10 PM 64.2°F17.9°C 58.6°F14.8°C 82% Calm Calm -- 29.91 in1012.9 mb - 0.00 in0.0 mm 0.09 in2.3 mm
08:20 PM 62.7°F17.1°C 58.1°F14.5°C 85% 2.3 mph SSE3.7 kmh SSE 3.5 mph5.6 kmh 29.91 in1012.9 mb - 0.00 in0.0 mm 0.09 in2.3 mm
08:30 PM 61.9°F16.6°C 58.3°F14.6°C 88% 2.3 mph S3.7 kmh S 3.5 mph5.6 kmh 29.91 in1012.9 mb - 0.00 in0.0 mm 0.09 in2.3 mm
08:40 PM 61.7°F16.5°C 58.7°F14.8°C 90% Calm Calm -- 29.91 in1012.9 mb - 0.00 in0.0 mm 0.09 in2.3 mm
08:50 PM 61.3°F16.3°C 58.7°F14.8°C 91% Calm Calm -- 29.91 in1012.9 mb - 0.00 in0.0 mm 0.09 in2.3 mm
09:00 PM 61.0°F16.1°C 58.3°F14.6°C 91% Calm Calm -- 29.91 in1012.9 mb - 0.00 in0.0 mm 0.09 in2.3 mm
09:10 PM 60.6°F15.9°C 58.3°F14.6°C 92% Calm Calm -- 29.91 in1012.9 mb - 0.00 in0.0 mm 0.09 in2.3 mm
09:20 PM 60.4°F15.8°C 58.1°F14.5°C 92% Calm Calm -- 29.91 in1012.9 mb - 0.00 in0.0 mm 0.09 in2.3 mm
09:30 PM 60.1°F15.6°C 57.7°F14.3°C 92% Calm Calm -- 29.91 in1012.9 mb - 0.00 in0.0 mm 0.09 in2.3 mm
09:40 PM 59.9°F15.5°C 57.9°F14.4°C 93% Calm Calm -- 29.91 in1012.9 mb - 0.00 in0.0 mm 0.09 in2.3 mm
09:50 PM 59.7°F15.4°C 58.0°F14.4°C 94% Calm Calm -- 29.94 in1013.9 mb - 0.00 in0.0 mm 0.09 in2.3 mm
10:00 PM 59.4°F15.2°C 57.6°F14.2°C 94% Calm Calm -- 29.94 in1013.9 mb - 0.00 in0.0 mm 0.09 in2.3 mm
10:10 PM 59.2°F15.1°C 57.7°F14.3°C 95% Calm Calm -- 29.94 in1013.9 mb - 0.00 in0.0 mm 0.09 in2.3 mm
10:20 PM 59.0°F15.0°C 57.6°F14.2°C 95% Calm Calm -- 29.94 in1013.9 mb - 0.00 in0.0 mm 0.09 in2.3 mm
10:30 PM 58.8°F14.9°C 57.7°F14.3°C 96% Calm Calm -- 29.94 in1013.9 mb - 0.00 in0.0 mm 0.09 in2.3 mm
10:40 PM 58.8°F14.9°C 57.7°F14.3°C 96% Calm Calm -- 29.94 in1013.9 mb - 0.00 in0.0 mm 0.09 in2.3 mm
11:00 PM 58.6°F14.8°C 57.8°F14.3°C 97% Calm Calm -- 29.94 in1013.9 mb - 0.00 in0.0 mm 0.54 in13.7 mm
11:10 PM 58.5°F14.7°C 57.6°F14.2°C 97% Calm Calm -- 29.94 in1013.9 mb - 0.00 in0.0 mm 0.54 in13.7 mm
11:20 PM 58.4°F14.7°C 57.8°F14.3°C 98% Calm Calm -- 29.94 in1013.9 mb - 0.00 in0.0 mm 0.54 in13.7 mm
11:30 PM 58.1°F14.5°C 57.5°F14.2°C 98% Calm Calm -- 29.94 in1013.9 mb - 0.00 in0.0 mm 0.54 in13.7 mm
11:40 PM 57.9°F14.4°C 57.4°F14.1°C 98% Calm Calm -- 29.94 in1013.9 mb - 0.00 in0.0 mm 0.54 in13.7 mm
11:50 PM 57.8°F14.3°C 57.3°F14.1°C 98% Calm Calm -- 29.94 in1013.9 mb - 0.00 in0.0 mm 0.54 in13.7 mm